sensor_id;sensor_type;location;lat;lon;timestamp;temperature;humidity
39095;DHT22;24840;47.508;19.376;2022-07-03T00:02:18;19.30;99.90
39095;DHT22;24840;47.508;19.376;2022-07-03T00:04:45;19.30;99.90
39095;DHT22;24840;47.508;19.376;2022-07-03T00:07:12;19.20;99.90
39095;DHT22;24840;47.508;19.376;2022-07-03T00:09:38;19.10;99.90
39095;DHT22;24840;47.508;19.376;2022-07-03T00:12:05;19.10;99.90
39095;DHT22;24840;47.508;19.376;2022-07-03T00:14:31;19.10;99.90
39095;DHT22;24840;47.508;19.376;2022-07-03T00:16:58;19.00;99.90
39095;DHT22;24840;47.508;19.376;2022-07-03T00:19:24;19.00;99.90
39095;DHT22;24840;47.508;19.376;2022-07-03T00:21:58;19.00;99.90
39095;DHT22;24840;47.508;19.376;2022-07-03T00:24:33;18.80;99.90
39095;DHT22;24840;47.508;19.376;2022-07-03T00:27:02;18.80;99.90
39095;DHT22;24840;47.508;19.376;2022-07-03T00:29:37;18.70;99.90
39095;DHT22;24840;47.508;19.376;2022-07-03T00:32:05;18.70;99.90
39095;DHT22;24840;47.508;19.376;2022-07-03T00:34:32;18.70;99.90
39095;DHT22;24840;47.508;19.376;2022-07-03T00:37:00;18.80;99.90
39095;DHT22;24840;47.508;19.376;2022-07-03T00:39:27;18.90;99.90
39095;DHT22;24840;47.508;19.376;2022-07-03T00:42:02;18.90;99.90
39095;DHT22;24840;47.508;19.376;2022-07-03T00:44:29;18.80;99.90
39095;DHT22;24840;47.508;19.376;2022-07-03T00:46:58;18.70;99.90
39095;DHT22;24840;47.508;19.376;2022-07-03T00:49:25;18.50;99.90
39095;DHT22;24840;47.508;19.376;2022-07-03T00:51:52;18.50;99.90
39095;DHT22;24840;47.508;19.376;2022-07-03T00:54:22;18.60;99.90
39095;DHT22;24840;47.508;19.376;2022-07-03T00:56:52;18.60;99.90
39095;DHT22;24840;47.508;19.376;2022-07-03T00:59:18;18.40;99.90
39095;DHT22;24840;47.508;19.376;2022-07-03T01:01:45;18.40;99.90
39095;DHT22;24840;47.508;19.376;2022-07-03T01:04:22;18.30;99.90
39095;DHT22;24840;47.508;19.376;2022-07-03T01:07:00;18.20;99.90
39095;DHT22;24840;47.508;19.376;2022-07-03T01:15:29;18.20;99.90
39095;DHT22;24840;47.508;19.376;2022-07-03T01:20:52;17.90;99.90
39095;DHT22;24840;47.508;19.376;2022-07-03T01:24:02;17.90;99.90
39095;DHT22;24840;47.508;19.376;2022-07-03T01:26:36;17.90;99.90
39095;DHT22;24840;47.508;19.376;2022-07-03T01:29:14;17.80;99.90
39095;DHT22;24840;47.508;19.376;2022-07-03T01:31:43;17.80;99.90
39095;DHT22;24840;47.508;19.376;2022-07-03T01:34:17;17.70;99.90
39095;DHT22;24840;47.508;19.376;2022-07-03T01:36:47;17.70;99.90
39095;DHT22;24840;47.508;19.376;2022-07-03T01:39:16;17.80;99.90
39095;DHT22;24840;47.508;19.376;2022-07-03T01:41:44;17.80;99.90
39095;DHT22;24840;47.508;19.376;2022-07-03T01:44:14;17.70;99.90
39095;DHT22;24840;47.508;19.376;2022-07-03T01:46:41;17.60;99.90
39095;DHT22;24840;47.508;19.376;2022-07-03T01:49:13;17.50;99.90
39095;DHT22;24840;47.508;19.376;2022-07-03T01:51:42;17.50;99.90
39095;DHT22;24840;47.508;19.376;2022-07-03T01:54:10;17.30;99.90
39095;DHT22;24840;47.508;19.376;2022-07-03T01:56:36;17.40;99.90
39095;DHT22;24840;47.508;19.376;2022-07-03T01:59:03;17.30;99.90
39095;DHT22;24840;47.508;19.376;2022-07-03T02:01:51;17.40;99.90
39095;DHT22;24840;47.508;19.376;2022-07-03T02:07:18;17.00;99.90
39095;DHT22;24840;47.508;19.376;2022-07-03T02:10:04;17.20;99.90
39095;DHT22;24840;47.508;19.376;2022-07-03T02:12:38;17.20;99.90
39095;DHT22;24840;47.508;19.376;2022-07-03T02:15:08;17.20;99.90
39095;DHT22;24840;47.508;19.376;2022-07-03T02:17:46;17.10;99.90
39095;DHT22;24840;47.508;19.376;2022-07-03T02:20:16;17.10;99.90
39095;DHT22;24840;47.508;19.376;2022-07-03T02:23:02;17.20;99.90
39095;DHT22;24840;47.508;19.376;2022-07-03T02:25:36;17.10;99.90
39095;DHT22;24840;47.508;19.376;2022-07-03T02:30:59;16.90;99.90
39095;DHT22;24840;47.508;19.376;2022-07-03T02:33:30;16.90;99.90
39095;DHT22;24840;47.508;19.376;2022-07-03T02:35:57;16.70;99.90
39095;DHT22;24840;47.508;19.376;2022-07-03T02:38:24;16.70;99.90
39095;DHT22;24840;47.508;19.376;2022-07-03T02:41:24;16.80;99.90
39095;DHT22;24840;47.508;19.376;2022-07-03T02:43:58;16.80;99.90
39095;DHT22;24840;47.508;19.376;2022-07-03T02:46:49;16.80;99.90
39095;DHT22;24840;47.508;19.376;2022-07-03T02:49:31;16.60;99.90
39095;DHT22;24840;47.508;19.376;2022-07-03T02:58:26;16.70;99.90
39095;DHT22;24840;47.508;19.376;2022-07-03T03:03:27;16.60;99.90
39095;DHT22;24840;47.508;19.376;2022-07-03T03:06:00;16.60;99.90
39095;DHT22;24840;47.508;19.376;2022-07-03T03:08:47;16.50;99.90
39095;DHT22;24840;47.508;19.376;2022-07-03T03:14:09;16.50;99.90
39095;DHT22;24840;47.508;19.376;2022-07-03T03:16:37;16.40;99.90
39095;DHT22;24840;47.508;19.376;2022-07-03T03:19:07;16.50;99.90
39095;DHT22;24840;47.508;19.376;2022-07-03T03:21:52;16.60;99.90
39095;DHT22;24840;47.508;19.376;2022-07-03T03:24:22;16.50;99.90
39095;DHT22;24840;47.508;19.376;2022-07-03T03:26:49;16.40;99.90
39095;DHT22;24840;47.508;19.376;2022-07-03T03:29:15;16.40;99.90
39095;DHT22;24840;47.508;19.376;2022-07-03T03:31:41;16.50;99.90
39095;DHT22;24840;47.508;19.376;2022-07-03T03:34:07;16.50;99.90
39095;DHT22;24840;47.508;19.376;2022-07-03T03:36:35;16.40;99.90
39095;DHT22;24840;47.508;19.376;2022-07-03T03:39:01;16.40;99.90
39095;DHT22;24840;47.508;19.376;2022-07-03T03:41:27;16.50;99.90
39095;DHT22;24840;47.508;19.376;2022-07-03T03:43:53;16.60;99.90
39095;DHT22;24840;47.508;19.376;2022-07-03T03:46:19;16.70;99.90
39095;DHT22;24840;47.508;19.376;2022-07-03T03:48:47;16.50;99.90
39095;DHT22;24840;47.508;19.376;2022-07-03T03:51:13;16.30;99.90
39095;DHT22;24840;47.508;19.376;2022-07-03T03:53:40;16.30;99.90
39095;DHT22;24840;47.508;19.376;2022-07-03T03:56:09;16.50;99.90
39095;DHT22;24840;47.508;19.376;2022-07-03T03:58:39;16.70;99.90
39095;DHT22;24840;47.508;19.376;2022-07-03T04:01:07;16.70;99.90
39095;DHT22;24840;47.508;19.376;2022-07-03T04:03:33;16.90;99.90
39095;DHT22;24840;47.508;19.376;2022-07-03T04:06:00;16.90;99.90
39095;DHT22;24840;47.508;19.376;2022-07-03T04:08:27;16.90;99.90
39095;DHT22;24840;47.508;19.376;2022-07-03T04:10:53;16.90;99.90
39095;DHT22;24840;47.508;19.376;2022-07-03T04:13:20;17.00;99.90
39095;DHT22;24840;47.508;19.376;2022-07-03T04:15:47;17.10;99.90
39095;DHT22;24840;47.508;19.376;2022-07-03T04:18:13;17.10;99.90
39095;DHT22;24840;47.508;19.376;2022-07-03T04:20:39;17.30;99.90
39095;DHT22;24840;47.508;19.376;2022-07-03T04:23:05;17.20;99.90
39095;DHT22;24840;47.508;19.376;2022-07-03T04:25:32;17.20;99.90
39095;DHT22;24840;47.508;19.376;2022-07-03T04:27:58;17.40;99.90
39095;DHT22;24840;47.508;19.376;2022-07-03T04:30:24;17.50;99.90
39095;DHT22;24840;47.508;19.376;2022-07-03T04:32:51;17.50;99.90
39095;DHT22;24840;47.508;19.376;2022-07-03T04:35:17;17.70;99.90
39095;DHT22;24840;47.508;19.376;2022-07-03T04:37:43;17.90;99.90
39095;DHT22;24840;47.508;19.376;2022-07-03T04:40:10;18.00;99.90
39095;DHT22;24840;47.508;19.376;2022-07-03T04:42:37;18.00;99.90
39095;DHT22;24840;47.508;19.376;2022-07-03T04:45:03;18.10;99.90
39095;DHT22;24840;47.508;19.376;2022-07-03T04:47:30;18.20;99.90
39095;DHT22;24840;47.508;19.376;2022-07-03T04:49:56;18.20;99.90
39095;DHT22;24840;47.508;19.376;2022-07-03T04:52:22;18.30;99.90
39095;DHT22;24840;47.508;19.376;2022-07-03T04:54:49;18.50;99.90
39095;DHT22;24840;47.508;19.376;2022-07-03T04:57:15;18.60;99.90
39095;DHT22;24840;47.508;19.376;2022-07-03T04:59:41;18.60;99.90
39095;DHT22;24840;47.508;19.376;2022-07-03T05:02:07;18.70;99.90
39095;DHT22;24840;47.508;19.376;2022-07-03T05:04:33;18.80;99.90
39095;DHT22;24840;47.508;19.376;2022-07-03T05:06:59;19.10;99.90
39095;DHT22;24840;47.508;19.376;2022-07-03T05:09:25;19.20;99.90
39095;DHT22;24840;47.508;19.376;2022-07-03T05:11:51;19.40;99.90
39095;DHT22;24840;47.508;19.376;2022-07-03T05:14:18;19.50;99.90
39095;DHT22;24840;47.508;19.376;2022-07-03T05:16:44;19.70;99.90
39095;DHT22;24840;47.508;19.376;2022-07-03T05:19:10;19.90;99.90
39095;DHT22;24840;47.508;19.376;2022-07-03T05:21:36;20.20;99.90
39095;DHT22;24840;47.508;19.376;2022-07-03T05:24:02;20.40;99.90
39095;DHT22;24840;47.508;19.376;2022-07-03T05:26:28;20.60;99.90
39095;DHT22;24840;47.508;19.376;2022-07-03T05:28:54;20.80;99.90
39095;DHT22;24840;47.508;19.376;2022-07-03T05:31:20;20.80;99.90
39095;DHT22;24840;47.508;19.376;2022-07-03T05:33:46;21.00;99.90
39095;DHT22;24840;47.508;19.376;2022-07-03T05:36:12;21.20;99.90
39095;DHT22;24840;47.508;19.376;2022-07-03T05:38:38;21.50;99.90
39095;DHT22;24840;47.508;19.376;2022-07-03T05:41:22;21.80;99.90
39095;DHT22;24840;47.508;19.376;2022-07-03T05:43:48;22.10;99.90
39095;DHT22;24840;47.508;19.376;2022-07-03T05:46:15;22.20;99.90
39095;DHT22;24840;47.508;19.376;2022-07-03T05:48:41;22.30;99.90
39095;DHT22;24840;47.508;19.376;2022-07-03T05:51:07;22.60;99.50
39095;DHT22;24840;47.508;19.376;2022-07-03T05:53:33;22.80;98.00
39095;DHT22;24840;47.508;19.376;2022-07-03T05:55:59;22.90;98.10
39095;DHT22;24840;47.508;19.376;2022-07-03T05:58:25;23.20;97.80
39095;DHT22;24840;47.508;19.376;2022-07-03T06:00:52;23.50;97.50
39095;DHT22;24840;47.508;19.376;2022-07-03T06:03:18;23.70;96.30
39095;DHT22;24840;47.508;19.376;2022-07-03T06:05:44;23.80;96.30
39095;DHT22;24840;47.508;19.376;2022-07-03T06:08:10;24.00;96.50
39095;DHT22;24840;47.508;19.376;2022-07-03T06:10:36;24.00;96.20
39095;DHT22;24840;47.508;19.376;2022-07-03T06:13:03;24.30;97.10
39095;DHT22;24840;47.508;19.376;2022-07-03T06:15:29;24.30;95.50
39095;DHT22;24840;47.508;19.376;2022-07-03T06:17:55;24.60;94.70
39095;DHT22;24840;47.508;19.376;2022-07-03T06:20:21;25.00;94.70
39095;DHT22;24840;47.508;19.376;2022-07-03T06:22:47;25.30;93.50
39095;DHT22;24840;47.508;19.376;2022-07-03T06:25:13;25.30;92.00
39095;DHT22;24840;47.508;19.376;2022-07-03T06:27:39;25.50;91.90
39095;DHT22;24840;47.508;19.376;2022-07-03T06:30:05;25.70;92.10
39095;DHT22;24840;47.508;19.376;2022-07-03T06:32:31;25.50;91.00
39095;DHT22;24840;47.508;19.376;2022-07-03T06:35:00;25.40;91.70
39095;DHT22;24840;47.508;19.376;2022-07-03T06:37:26;25.80;91.10
39095;DHT22;24840;47.508;19.376;2022-07-03T06:39:52;26.00;90.00
39095;DHT22;24840;47.508;19.376;2022-07-03T06:42:18;26.10;89.40
39095;DHT22;24840;47.508;19.376;2022-07-03T06:44:45;26.30;88.90
39095;DHT22;24840;47.508;19.376;2022-07-03T06:47:11;26.70;88.60
39095;DHT22;24840;47.508;19.376;2022-07-03T06:49:38;26.70;88.00
39095;DHT22;24840;47.508;19.376;2022-07-03T06:52:05;26.90;86.80
39095;DHT22;24840;47.508;19.376;2022-07-03T06:54:32;27.10;85.50
39095;DHT22;24840;47.508;19.376;2022-07-03T06:56:58;27.30;85.60
39095;DHT22;24840;47.508;19.376;2022-07-03T06:59:24;27.40;83.60
39095;DHT22;24840;47.508;19.376;2022-07-03T07:01:50;27.40;84.30
39095;DHT22;24840;47.508;19.376;2022-07-03T07:04:16;27.70;83.80
39095;DHT22;24840;47.508;19.376;2022-07-03T07:06:42;27.90;81.80
39095;DHT22;24840;47.508;19.376;2022-07-03T07:09:08;27.50;81.80
39095;DHT22;24840;47.508;19.376;2022-07-03T07:11:34;27.70;82.50
39095;DHT22;24840;47.508;19.376;2022-07-03T07:14:00;28.10;82.80
39095;DHT22;24840;47.508;19.376;2022-07-03T07:16:26;28.30;80.50
39095;DHT22;24840;47.508;19.376;2022-07-03T07:18:55;28.60;79.50
39095;DHT22;24840;47.508;19.376;2022-07-03T07:21:21;28.50;80.40
39095;DHT22;24840;47.508;19.376;2022-07-03T07:23:47;28.70;79.10
39095;DHT22;24840;47.508;19.376;2022-07-03T07:26:13;29.00;77.30
39095;DHT22;24840;47.508;19.376;2022-07-03T07:28:39;29.00;77.50
39095;DHT22;24840;47.508;19.376;2022-07-03T07:31:04;28.90;78.20
39095;DHT22;24840;47.508;19.376;2022-07-03T07:33:31;29.20;78.20
39095;DHT22;24840;47.508;19.376;2022-07-03T07:35:57;29.20;76.30
39095;DHT22;24840;47.508;19.376;2022-07-03T07:38:23;29.10;76.20
39095;DHT22;24840;47.508;19.376;2022-07-03T07:40:48;29.00;76.40
39095;DHT22;24840;47.508;19.376;2022-07-03T07:43:14;29.10;75.50
39095;DHT22;24840;47.508;19.376;2022-07-03T07:45:40;29.20;74.80
39095;DHT22;24840;47.508;19.376;2022-07-03T07:48:06;29.00;76.00
39095;DHT22;24840;47.508;19.376;2022-07-03T07:50:32;29.10;75.50
39095;DHT22;24840;47.508;19.376;2022-07-03T07:52:58;29.30;75.50
39095;DHT22;24840;47.508;19.376;2022-07-03T07:55:24;29.40;74.50
39095;DHT22;24840;47.508;19.376;2022-07-03T07:57:51;29.80;74.80
39095;DHT22;24840;47.508;19.376;2022-07-03T08:00:18;30.40;73.70
39095;DHT22;24840;47.508;19.376;2022-07-03T08:02:45;30.60;72.00
39095;DHT22;24840;47.508;19.376;2022-07-03T08:05:30;30.30;70.60
39095;DHT22;24840;47.508;19.376;2022-07-03T08:08:10;31.20;69.60
39095;DHT22;24840;47.508;19.376;2022-07-03T08:13:04;30.90;67.30
39095;DHT22;24840;47.508;19.376;2022-07-03T08:15:30;32.00;66.80
39095;DHT22;24840;47.508;19.376;2022-07-03T08:17:56;32.40;63.10
39095;DHT22;24840;47.508;19.376;2022-07-03T08:20:22;31.30;65.40
39095;DHT22;24840;47.508;19.376;2022-07-03T08:22:48;31.90;66.90
39095;DHT22;24840;47.508;19.376;2022-07-03T08:25:14;31.80;65.40
39095;DHT22;24840;47.508;19.376;2022-07-03T08:27:40;32.10;65.10
39095;DHT22;24840;47.508;19.376;2022-07-03T08:30:08;32.10;62.90
39095;DHT22;24840;47.508;19.376;2022-07-03T08:32:34;32.50;65.30
39095;DHT22;24840;47.508;19.376;2022-07-03T08:35:01;32.30;63.90
39095;DHT22;24840;47.508;19.376;2022-07-03T08:37:27;31.60;63.50
39095;DHT22;24840;47.508;19.376;2022-07-03T08:39:53;32.10;63.10
39095;DHT22;24840;47.508;19.376;2022-07-03T08:42:19;31.90;62.90
39095;DHT22;24840;47.508;19.376;2022-07-03T08:44:47;31.50;63.20
39095;DHT22;24840;47.508;19.376;2022-07-03T08:47:15;31.60;65.10
39095;DHT22;24840;47.508;19.376;2022-07-03T08:49:43;31.70;64.50
39095;DHT22;24840;47.508;19.376;2022-07-03T08:52:09;32.10;64.60
39095;DHT22;24840;47.508;19.376;2022-07-03T08:54:37;31.90;63.00
39095;DHT22;24840;47.508;19.376;2022-07-03T08:57:04;31.90;65.50
39095;DHT22;24840;47.508;19.376;2022-07-03T08:59:36;32.30;61.90
39095;DHT22;24840;47.508;19.376;2022-07-03T09:02:03;32.70;62.00
39095;DHT22;24840;47.508;19.376;2022-07-03T09:04:33;32.30;61.50
39095;DHT22;24840;47.508;19.376;2022-07-03T09:07:00;33.30;60.00
39095;DHT22;24840;47.508;19.376;2022-07-03T09:09:26;33.30;59.30
39095;DHT22;24840;47.508;19.376;2022-07-03T09:11:53;34.30;59.00
39095;DHT22;24840;47.508;19.376;2022-07-03T09:14:19;34.20;58.10
39095;DHT22;24840;47.508;19.376;2022-07-03T09:16:45;33.60;58.90
39095;DHT22;24840;47.508;19.376;2022-07-03T09:19:11;33.10;58.80
39095;DHT22;24840;47.508;19.376;2022-07-03T09:21:42;33.10;59.60
39095;DHT22;24840;47.508;19.376;2022-07-03T09:24:10;32.80;60.00
39095;DHT22;24840;47.508;19.376;2022-07-03T09:26:36;33.50;58.80
39095;DHT22;24840;47.508;19.376;2022-07-03T09:29:15;34.10;58.10
39095;DHT22;24840;47.508;19.376;2022-07-03T09:31:41;33.10;59.00
39095;DHT22;24840;47.508;19.376;2022-07-03T09:34:07;33.30;57.60
39095;DHT22;24840;47.508;19.376;2022-07-03T09:36:46;33.20;58.70
39095;DHT22;24840;47.508;19.376;2022-07-03T09:39:31;34.10;58.10
39095;DHT22;24840;47.508;19.376;2022-07-03T09:42:02;34.50;56.10
39095;DHT22;24840;47.508;19.376;2022-07-03T09:44:42;34.40;54.40
39095;DHT22;24840;47.508;19.376;2022-07-03T09:47:23;34.20;57.20
39095;DHT22;24840;47.508;19.376;2022-07-03T09:49:51;34.40;56.00
39095;DHT22;24840;47.508;19.376;2022-07-03T09:52:36;34.70;55.50
39095;DHT22;24840;47.508;19.376;2022-07-03T10:00:27;34.60;53.10
39095;DHT22;24840;47.508;19.376;2022-07-03T10:03:05;35.40;52.20
39095;DHT22;24840;47.508;19.376;2022-07-03T10:05:36;35.50;52.50
39095;DHT22;24840;47.508;19.376;2022-07-03T10:08:10;36.10;51.80
39095;DHT22;24840;47.508;19.376;2022-07-03T10:10:41;35.90;53.10
39095;DHT22;24840;47.508;19.376;2022-07-03T10:13:10;35.60;52.40
39095;DHT22;24840;47.508;19.376;2022-07-03T10:15:38;35.70;51.30
39095;DHT22;24840;47.508;19.376;2022-07-03T10:18:07;35.50;52.50
39095;DHT22;24840;47.508;19.376;2022-07-03T10:23:12;35.40;51.30
39095;DHT22;24840;47.508;19.376;2022-07-03T10:25:44;35.80;49.60
39095;DHT22;24840;47.508;19.376;2022-07-03T10:28:35;34.90;50.20
39095;DHT22;24840;47.508;19.376;2022-07-03T10:31:01;35.20;51.00
39095;DHT22;24840;47.508;19.376;2022-07-03T10:33:28;35.80;50.80
39095;DHT22;24840;47.508;19.376;2022-07-03T10:35:55;36.10;48.60
39095;DHT22;24840;47.508;19.376;2022-07-03T10:44:05;35.10;49.70
39095;DHT22;24840;47.508;19.376;2022-07-03T10:46:50;35.60;49.40
39095;DHT22;24840;47.508;19.376;2022-07-03T10:49:35;36.40;48.20
39095;DHT22;24840;47.508;19.376;2022-07-03T10:52:02;35.50;48.10
39095;DHT22;24840;47.508;19.376;2022-07-03T10:54:31;36.40;48.80
39095;DHT22;24840;47.508;19.376;2022-07-03T11:02:26;36.50;48.20
39095;DHT22;24840;47.508;19.376;2022-07-03T11:07:42;36.10;45.70
39095;DHT22;24840;47.508;19.376;2022-07-03T11:15:49;36.20;45.20
39095;DHT22;24840;47.508;19.376;2022-07-03T11:18:44;36.80;46.80
39095;DHT22;24840;47.508;19.376;2022-07-03T11:21:30;38.00;44.40
39095;DHT22;24840;47.508;19.376;2022-07-03T11:30:23;38.60;44.90
39095;DHT22;24840;47.508;19.376;2022-07-03T11:32:55;38.20;44.80
39095;DHT22;24840;47.508;19.376;2022-07-03T11:38:22;39.20;44.10
39095;DHT22;24840;47.508;19.376;2022-07-03T11:40:50;38.10;44.60
39095;DHT22;24840;47.508;19.376;2022-07-03T11:43:16;38.40;44.20
39095;DHT22;24840;47.508;19.376;2022-07-03T11:45:43;38.30;42.30
39095;DHT22;24840;47.508;19.376;2022-07-03T11:48:17;38.00;42.60
39095;DHT22;24840;47.508;19.376;2022-07-03T11:50:44;39.00;41.20
39095;DHT22;24840;47.508;19.376;2022-07-03T11:53:27;38.40;43.00
39095;DHT22;24840;47.508;19.376;2022-07-03T11:55:58;38.70;42.70
39095;DHT22;24840;47.508;19.376;2022-07-03T11:58:25;38.80;42.30
39095;DHT22;24840;47.508;19.376;2022-07-03T12:00:52;38.80;42.90
39095;DHT22;24840;47.508;19.376;2022-07-03T12:03:25;37.80;43.00
39095;DHT22;24840;47.508;19.376;2022-07-03T12:05:57;38.00;43.70
39095;DHT22;24840;47.508;19.376;2022-07-03T12:11:03;38.20;41.90
39095;DHT22;24840;47.508;19.376;2022-07-03T12:13:31;38.10;44.20
39095;DHT22;24840;47.508;19.376;2022-07-03T12:16:03;39.50;42.80
39095;DHT22;24840;47.508;19.376;2022-07-03T12:21:16;38.40;40.60
39095;DHT22;24840;47.508;19.376;2022-07-03T12:26:13;38.90;42.90
39095;DHT22;24840;47.508;19.376;2022-07-03T12:28:39;39.30;43.00
39095;DHT22;24840;47.508;19.376;2022-07-03T12:31:07;38.90;42.40
39095;DHT22;24840;47.508;19.376;2022-07-03T12:33:34;39.00;42.60
39095;DHT22;24840;47.508;19.376;2022-07-03T12:36:05;39.40;41.70
39095;DHT22;24840;47.508;19.376;2022-07-03T12:38:32;38.60;41.80
39095;DHT22;24840;47.508;19.376;2022-07-03T12:41:09;38.60;42.70
39095;DHT22;24840;47.508;19.376;2022-07-03T12:43:45;38.40;43.50
39095;DHT22;24840;47.508;19.376;2022-07-03T12:46:34;38.40;42.00
39095;DHT22;24840;47.508;19.376;2022-07-03T12:49:08;38.70;44.20
39095;DHT22;24840;47.508;19.376;2022-07-03T12:54:15;40.00;42.80
39095;DHT22;24840;47.508;19.376;2022-07-03T12:56:43;40.80;41.50
39095;DHT22;24840;47.508;19.376;2022-07-03T12:59:28;40.90;41.30
39095;DHT22;24840;47.508;19.376;2022-07-03T13:02:04;40.40;41.70
39095;DHT22;24840;47.508;19.376;2022-07-03T13:04:33;40.80;42.10
39095;DHT22;24840;47.508;19.376;2022-07-03T13:07:00;40.20;43.00
39095;DHT22;24840;47.508;19.376;2022-07-03T13:09:27;38.20;44.10
39095;DHT22;24840;47.508;19.376;2022-07-03T13:11:53;38.30;43.20
39095;DHT22;24840;47.508;19.376;2022-07-03T13:14:19;38.90;42.20
39095;DHT22;24840;47.508;19.376;2022-07-03T13:16:47;39.50;44.10
39095;DHT22;24840;47.508;19.376;2022-07-03T13:19:16;39.80;42.60
39095;DHT22;24840;47.508;19.376;2022-07-03T13:21:42;38.60;41.70
39095;DHT22;24840;47.508;19.376;2022-07-03T13:24:10;37.70;44.90
39095;DHT22;24840;47.508;19.376;2022-07-03T13:26:36;38.20;43.30
39095;DHT22;24840;47.508;19.376;2022-07-03T13:29:03;37.60;43.60
39095;DHT22;24840;47.508;19.376;2022-07-03T13:31:29;37.60;44.80
39095;DHT22;24840;47.508;19.376;2022-07-03T13:33:56;38.20;44.30
39095;DHT22;24840;47.508;19.376;2022-07-03T13:36:26;37.40;43.10
39095;DHT22;24840;47.508;19.376;2022-07-03T13:38:52;36.60;45.10
39095;DHT22;24840;47.508;19.376;2022-07-03T13:41:18;37.00;44.60
39095;DHT22;24840;47.508;19.376;2022-07-03T13:43:47;37.90;43.00
39095;DHT22;24840;47.508;19.376;2022-07-03T13:46:15;38.90;42.50
39095;DHT22;24840;47.508;19.376;2022-07-03T13:48:41;39.80;42.40
39095;DHT22;24840;47.508;19.376;2022-07-03T13:51:07;40.00;42.70
39095;DHT22;24840;47.508;19.376;2022-07-03T13:53:34;40.50;41.40
39095;DHT22;24840;47.508;19.376;2022-07-03T13:56:00;39.00;41.50
39095;DHT22;24840;47.508;19.376;2022-07-03T13:58:27;38.20;42.60
39095;DHT22;24840;47.508;19.376;2022-07-03T14:00:53;37.60;43.50
39095;DHT22;24840;47.508;19.376;2022-07-03T14:03:19;38.90;44.20
39095;DHT22;24840;47.508;19.376;2022-07-03T14:05:46;39.10;42.30
39095;DHT22;24840;47.508;19.376;2022-07-03T14:08:13;38.00;42.20
39095;DHT22;24840;47.508;19.376;2022-07-03T14:10:40;37.20;44.20
39095;DHT22;24840;47.508;19.376;2022-07-03T14:13:06;37.90;44.00
39095;DHT22;24840;47.508;19.376;2022-07-03T14:15:33;38.10;42.50
39095;DHT22;24840;47.508;19.376;2022-07-03T14:17:59;38.20;42.50
39095;DHT22;24840;47.508;19.376;2022-07-03T14:20:27;38.00;42.90
39095;DHT22;24840;47.508;19.376;2022-07-03T14:22:53;38.00;44.30
39095;DHT22;24840;47.508;19.376;2022-07-03T14:25:19;38.50;42.80
39095;DHT22;24840;47.508;19.376;2022-07-03T14:27:46;37.90;41.80
39095;DHT22;24840;47.508;19.376;2022-07-03T14:30:30;37.40;42.80
39095;DHT22;24840;47.508;19.376;2022-07-03T14:33:15;37.50;43.60
39095;DHT22;24840;47.508;19.376;2022-07-03T14:35:41;38.60;43.30
39095;DHT22;24840;47.508;19.376;2022-07-03T14:38:07;36.90;42.90
39095;DHT22;24840;47.508;19.376;2022-07-03T14:40:34;36.30;44.00
39095;DHT22;24840;47.508;19.376;2022-07-03T14:43:00;37.10;44.20
39095;DHT22;24840;47.508;19.376;2022-07-03T14:45:26;37.50;43.90
39095;DHT22;24840;47.508;19.376;2022-07-03T14:47:53;37.80;42.00
39095;DHT22;24840;47.508;19.376;2022-07-03T14:50:19;37.80;42.60
39095;DHT22;24840;47.508;19.376;2022-07-03T14:52:45;37.30;42.50
39095;DHT22;24840;47.508;19.376;2022-07-03T14:55:11;37.30;43.30
39095;DHT22;24840;47.508;19.376;2022-07-03T14:57:49;37.50;42.20
39095;DHT22;24840;47.508;19.376;2022-07-03T15:00:19;37.50;43.00
39095;DHT22;24840;47.508;19.376;2022-07-03T15:03:07;37.90;41.20
39095;DHT22;24840;47.508;19.376;2022-07-03T15:05:35;38.10;42.10
39095;DHT22;24840;47.508;19.376;2022-07-03T15:10:49;37.70;42.60
39095;DHT22;24840;47.508;19.376;2022-07-03T15:13:16;37.30;42.30
39095;DHT22;24840;47.508;19.376;2022-07-03T15:15:45;36.50;42.90
39095;DHT22;24840;47.508;19.376;2022-07-03T15:18:11;36.50;42.40
39095;DHT22;24840;47.508;19.376;2022-07-03T15:20:39;36.30;42.80
39095;DHT22;24840;47.508;19.376;2022-07-03T15:23:06;36.00;43.80
39095;DHT22;24840;47.508;19.376;2022-07-03T15:25:35;36.20;44.30
39095;DHT22;24840;47.508;19.376;2022-07-03T15:28:01;36.60;44.20
39095;DHT22;24840;47.508;19.376;2022-07-03T15:30:28;36.50;43.70
39095;DHT22;24840;47.508;19.376;2022-07-03T15:32:56;36.40;44.60
39095;DHT22;24840;47.508;19.376;2022-07-03T15:35:23;36.40;42.80
39095;DHT22;24840;47.508;19.376;2022-07-03T15:40:40;36.70;44.40
39095;DHT22;24840;47.508;19.376;2022-07-03T15:43:25;36.50;44.00
39095;DHT22;24840;47.508;19.376;2022-07-03T15:52:00;36.10;44.30
39095;DHT22;24840;47.508;19.376;2022-07-03T15:54:49;35.60;46.00
39095;DHT22;24840;47.508;19.376;2022-07-03T15:57:27;35.40;46.30
39095;DHT22;24840;47.508;19.376;2022-07-03T16:00:06;34.80;46.40
39095;DHT22;24840;47.508;19.376;2022-07-03T16:02:45;34.50;46.80
39095;DHT22;24840;47.508;19.376;2022-07-03T16:05:31;34.30;47.10
39095;DHT22;24840;47.508;19.376;2022-07-03T16:08:00;34.60;47.70
39095;DHT22;24840;47.508;19.376;2022-07-03T16:10:26;34.70;46.60
39095;DHT22;24840;47.508;19.376;2022-07-03T16:12:53;34.30;47.40
39095;DHT22;24840;47.508;19.376;2022-07-03T16:15:20;34.10;47.80
39095;DHT22;24840;47.508;19.376;2022-07-03T16:17:46;33.70;48.70
39095;DHT22;24840;47.508;19.376;2022-07-03T16:20:14;33.50;48.70
39095;DHT22;24840;47.508;19.376;2022-07-03T16:22:40;33.40;48.90
39095;DHT22;24840;47.508;19.376;2022-07-03T16:25:07;33.30;48.70
39095;DHT22;24840;47.508;19.376;2022-07-03T16:27:34;33.20;47.80
39095;DHT22;24840;47.508;19.376;2022-07-03T16:30:00;32.90;48.80
39095;DHT22;24840;47.508;19.376;2022-07-03T16:32:33;33.00;49.30
39095;DHT22;24840;47.508;19.376;2022-07-03T16:35:08;32.70;50.20
39095;DHT22;24840;47.508;19.376;2022-07-03T16:37:51;32.70;48.80
39095;DHT22;24840;47.508;19.376;2022-07-03T16:40:19;32.60;49.30
39095;DHT22;24840;47.508;19.376;2022-07-03T16:42:50;32.50;50.90
39095;DHT22;24840;47.508;19.376;2022-07-03T16:45:19;32.40;50.70
39095;DHT22;24840;47.508;19.376;2022-07-03T16:47:49;32.20;49.60
39095;DHT22;24840;47.508;19.376;2022-07-03T16:50:21;32.20;50.10
39095;DHT22;24840;47.508;19.376;2022-07-03T16:52:51;32.10;50.80
39095;DHT22;24840;47.508;19.376;2022-07-03T16:55:20;32.00;50.80
39095;DHT22;24840;47.508;19.376;2022-07-03T16:57:55;31.90;51.00